createdAt,value
2018-11-23T00:01:24.473Z,35.90
2018-11-23T00:03:52.853Z,32.28
2018-11-23T00:06:21.119Z,33.80
2018-11-23T00:08:49.409Z,32.88
2018-11-23T00:11:17.708Z,33.30
2018-11-23T00:13:46.221Z,35.58
2018-11-23T00:16:14.517Z,30.35
2018-11-23T00:18:42.796Z,33.48
2018-11-23T00:21:11.071Z,35.52
2018-11-23T00:23:39.387Z,39.05
2018-11-23T00:26:07.669Z,36.03
2018-11-23T00:28:35.936Z,34.25
2018-11-23T00:31:04.225Z,33.40
2018-11-23T00:33:32.484Z,34.73
2018-11-23T00:36:00.781Z,35.17
2018-11-23T00:38:29.033Z,34.73
2018-11-23T00:40:57.335Z,33.70
2018-11-23T00:43:25.629Z,33.25
2018-11-23T00:45:53.907Z,32.30
2018-11-23T00:48:22.204Z,38.13
2018-11-23T00:50:50.513Z,31.65
2018-11-23T00:53:18.795Z,32.93
2018-11-23T00:55:47.067Z,38.63
2018-11-23T00:58:15.377Z,35.45
2018-11-23T01:00:43.672Z,34.27
2018-11-23T01:03:11.946Z,34.50
2018-11-23T01:05:40.214Z,35.77
2018-11-23T01:08:08.484Z,34.13
2018-11-23T01:10:36.804Z,34.80
2018-11-23T01:13:05.635Z,38.83
2018-11-23T01:15:33.917Z,37.23
2018-11-23T01:18:02.212Z,36.70
2018-11-23T01:20:30.507Z,39.18
2018-11-23T01:22:59.175Z,41.40
2018-11-23T01:25:28.169Z,35.25
2018-11-23T01:27:56.868Z,38.67
2018-11-23T01:30:27.381Z,40.17
2018-11-23T01:32:55.670Z,41.68
2018-11-23T01:35:24.055Z,38.80
2018-11-23T01:37:52.312Z,37.78
2018-11-23T01:40:22.850Z,38.90
2018-11-23T01:42:51.472Z,33.85
2018-11-23T01:45:19.756Z,35.78
2018-11-23T01:47:48.031Z,38.17
2018-11-23T01:50:19.335Z,41.20
2018-11-23T01:52:48.539Z,37.70
2018-11-23T01:55:17.723Z,37.07
2018-11-23T01:57:46.343Z,35.43
2018-11-23T02:00:18.298Z,36.23
2018-11-23T02:02:47.257Z,39.33
2018-11-23T02:05:15.601Z,35.92
2018-11-23T02:07:50.360Z,36.68
2018-11-23T02:10:19.060Z,34.10
2018-11-23T02:12:47.369Z,37.28
2018-11-23T02:15:17.845Z,33.45
2018-11-23T02:17:46.296Z,37.13
2018-11-23T02:20:15.966Z,33.13
2018-11-23T02:22:44.232Z,34.10
2018-11-23T02:25:12.513Z,34.70
2018-11-23T02:27:40.833Z,35.10
2018-11-23T02:30:13.949Z,34.23
2018-11-23T02:32:42.572Z,34.35
2018-11-23T02:35:10.853Z,38.48
2018-11-23T02:37:39.152Z,33.58
2018-11-23T02:40:08.393Z,32.10
2018-11-23T02:42:37.104Z,34.20
2018-11-23T02:45:06.966Z,34.13
2018-11-23T02:47:35.252Z,30.37
2018-11-23T02:50:03.536Z,33.03
2018-11-23T02:52:31.815Z,34.43
2018-11-23T02:55:00.135Z,30.65
2018-11-23T02:57:28.396Z,32.08
2018-11-23T02:59:56.653Z,35.95
2018-11-23T03:02:24.957Z,34.05
2018-11-23T03:04:53.205Z,32.42
2018-11-23T03:07:21.533Z,33.10
2018-11-23T03:09:49.835Z,34.43
2018-11-23T03:12:18.068Z,33.28
2018-11-23T03:14:46.368Z,35.30
2018-11-23T03:17:14.706Z,32.07
2018-11-23T03:19:43.025Z,33.90
2018-11-23T03:22:11.341Z,32.75
2018-11-23T03:24:46.944Z,32.95
2018-11-23T03:27:16.131Z,34.65
2018-11-23T03:29:44.412Z,30.92
2018-11-23T03:32:12.681Z,36.00
2018-11-23T03:34:40.947Z,34.65
2018-11-23T03:37:09.185Z,37.95
2018-11-23T03:39:37.503Z,33.60
2018-11-23T03:42:05.941Z,35.78
2018-11-23T03:44:34.212Z,33.98
2018-11-23T03:47:02.516Z,36.33
2018-11-23T03:49:30.753Z,34.33
2018-11-23T03:51:59.048Z,36.80
2018-11-23T03:54:27.323Z,35.90
2018-11-23T03:56:55.708Z,35.28
2018-11-23T03:59:23.973Z,34.60
2018-11-23T04:01:52.260Z,37.03
2018-11-23T04:04:20.528Z,37.28
2018-11-23T04:06:48.784Z,36.35
2018-11-23T04:11:57.401Z,34.67
2018-11-23T04:14:25.732Z,37.85
2018-11-23T04:16:53.994Z,32.70
2018-11-23T04:19:22.265Z,33.53
2018-11-23T04:21:50.540Z,32.33
2018-11-23T04:24:18.824Z,36.65
2018-11-23T04:26:47.327Z,38.42
2018-11-23T04:29:15.599Z,31.05
2018-11-23T04:31:43.864Z,34.88
2018-11-23T04:34:12.173Z,35.15
2018-11-23T04:36:40.481Z,34.60
2018-11-23T04:39:09.221Z,39.78
2018-11-23T04:41:37.504Z,40.93
2018-11-23T04:44:06.029Z,36.63
2018-11-23T04:46:34.316Z,34.67
2018-11-23T04:49:02.592Z,35.73
2018-11-23T04:51:30.868Z,37.75
2018-11-23T04:53:59.153Z,35.75
2018-11-23T04:56:27.483Z,35.10
2018-11-23T04:58:55.804Z,36.88
2018-11-23T05:01:24.067Z,36.23
2018-11-23T05:03:52.373Z,38.55
2018-11-23T05:06:20.647Z,34.87
2018-11-23T05:08:48.920Z,34.78
2018-11-23T05:11:17.224Z,31.95
2018-11-23T05:13:45.509Z,38.98
2018-11-23T05:16:13.762Z,33.40
2018-11-23T05:18:42.089Z,30.72
2018-11-23T05:21:10.420Z,35.43
2018-11-23T05:23:38.691Z,33.35
2018-11-23T05:26:07.076Z,31.20
2018-11-23T05:28:35.424Z,33.65
2018-11-23T05:31:03.680Z,34.27
2018-11-23T05:33:32.040Z,33.73
2018-11-23T05:36:00.309Z,33.45
2018-11-23T05:38:28.612Z,37.48
2018-11-23T05:40:56.908Z,35.88
2018-11-23T05:43:25.175Z,38.40
2018-11-23T05:45:53.416Z,34.15
2018-11-23T05:48:26.824Z,35.45
2018-11-23T05:50:50.005Z,37.85
2018-11-23T05:53:18.308Z,39.10
2018-11-23T05:55:46.576Z,32.63
2018-11-23T05:58:14.877Z,39.08
2018-11-23T06:00:43.127Z,37.38
2018-11-23T06:03:11.464Z,40.33
2018-11-23T06:05:39.751Z,34.43
2018-11-23T06:08:07.987Z,38.40
2018-11-23T06:10:36.222Z,35.85
2018-11-23T06:13:04.582Z,37.00
2018-11-23T06:15:32.911Z,36.58
2018-11-23T06:18:01.204Z,32.00
2018-11-23T06:20:29.463Z,35.03
2018-11-23T06:22:57.747Z,33.45
2018-11-23T06:25:28.281Z,33.70
2018-11-23T06:27:56.540Z,33.10
2018-11-23T06:30:24.839Z,35.48
2018-11-23T06:33:04.623Z,41.35
2018-11-23T06:35:32.920Z,33.05
2018-11-23T06:38:01.241Z,32.30
2018-11-23T06:40:29.529Z,30.77
2018-11-23T06:42:57.797Z,33.33
2018-11-23T06:45:26.141Z,35.10
2018-11-23T06:47:54.432Z,33.95
2018-11-23T06:50:22.704Z,34.83
2018-11-23T06:52:50.983Z,38.02
2018-11-23T06:55:19.276Z,37.48
2018-11-23T06:57:47.541Z,38.10
2018-11-23T07:00:16.631Z,41.15
2018-11-23T07:02:45.437Z,39.30
2018-11-23T07:05:14.096Z,39.40
2018-11-23T07:07:42.469Z,38.60
2018-11-23T07:10:11.280Z,36.05
2018-11-23T07:12:40.146Z,34.73
2018-11-23T07:15:09.963Z,37.65
2018-11-23T07:17:38.556Z,32.50
2018-11-23T07:20:08.649Z,36.05
2018-11-23T07:22:37.041Z,39.67
2018-11-23T07:25:06.020Z,38.42
2018-11-23T07:27:34.293Z,40.10
2018-11-23T07:30:02.662Z,42.60
2018-11-23T07:32:30.959Z,41.30
2018-11-23T07:34:59.205Z,38.92
2018-11-23T07:37:27.478Z,43.90
2018-11-23T07:40:07.124Z,40.00
2018-11-23T07:42:35.416Z,40.40
2018-11-23T07:45:03.672Z,36.77
2018-11-23T07:47:31.948Z,38.75
2018-11-23T07:50:00.228Z,35.45
2018-11-23T07:52:28.501Z,39.90
2018-11-23T07:54:56.788Z,42.23
2018-11-23T07:57:25.056Z,40.75
2018-11-23T07:59:53.416Z,44.90
2018-11-23T08:02:21.685Z,36.13
2018-11-23T08:04:49.940Z,41.42
2018-11-23T08:07:18.228Z,37.67
2018-11-23T08:09:46.501Z,38.90
2018-11-23T08:12:14.764Z,37.23
2018-11-23T08:14:43.054Z,38.48
2018-11-23T08:17:11.292Z,37.93
2018-11-23T08:19:47.011Z,39.00
2018-11-23T08:22:07.834Z,36.20
2018-11-23T08:24:36.101Z,36.15
2018-11-23T08:27:04.428Z,38.80
2018-11-23T08:29:32.700Z,39.67
2018-11-23T08:32:01.001Z,39.10
2018-11-23T08:34:29.316Z,40.65
2018-11-23T08:36:57.647Z,42.90
2018-11-23T08:39:25.947Z,40.67
2018-11-23T08:41:54.183Z,41.77
2018-11-23T08:44:22.500Z,41.77
2018-11-23T08:46:50.756Z,42.65
2018-11-23T08:49:19.079Z,42.13
2018-11-23T08:51:47.359Z,42.17
2018-11-23T08:54:15.652Z,39.27
2018-11-23T08:56:43.911Z,43.97
2018-11-23T08:59:12.237Z,43.33
2018-11-23T09:01:40.515Z,42.73
2018-11-23T09:04:08.792Z,44.27
2018-11-23T09:06:37.320Z,39.33
2018-11-23T09:09:08.556Z,40.30
2018-11-23T09:11:36.872Z,41.30
2018-11-23T09:14:06.104Z,38.97
2018-11-23T09:16:34.388Z,44.10
2018-11-23T09:19:02.715Z,44.55
2018-11-23T09:21:30.968Z,41.58
2018-11-23T09:23:59.225Z,41.23
2018-11-23T09:26:27.531Z,39.63
2018-11-23T09:28:55.819Z,44.38
2018-11-23T09:31:24.107Z,45.25
2018-11-23T09:33:52.413Z,43.73
2018-11-23T09:36:20.706Z,44.00
2018-11-23T09:38:48.991Z,43.17
2018-11-23T09:41:17.267Z,47.05
2018-11-23T09:43:45.537Z,46.33
2018-11-23T09:46:13.825Z,44.75
2018-11-23T09:48:42.195Z,47.62
2018-11-23T09:51:10.621Z,43.75
2018-11-23T09:53:38.877Z,44.13
2018-11-23T09:56:07.175Z,49.38
2018-11-23T09:58:35.455Z,50.25
2018-11-23T10:01:03.849Z,47.10
2018-11-23T10:03:32.136Z,44.98
2018-11-23T10:06:01.588Z,48.05
2018-11-23T10:08:28.801Z,52.43
2018-11-23T10:10:57.060Z,47.17
2018-11-23T10:13:25.351Z,43.30
2018-11-23T10:15:53.608Z,43.78
2018-11-23T10:18:21.927Z,43.38
2018-11-23T10:20:50.180Z,51.60
2018-11-23T10:23:18.428Z,41.63
2018-11-23T10:25:46.676Z,41.75
2018-11-23T10:28:14.947Z,43.55
2018-11-23T10:30:43.220Z,45.52
2018-11-23T10:33:11.496Z,42.75
2018-11-23T10:35:39.772Z,42.97
2018-11-23T10:38:08.206Z,44.77
2018-11-23T10:40:37.976Z,41.37
2018-11-23T10:43:06.837Z,48.23
2018-11-23T10:45:35.452Z,42.80
2018-11-23T10:48:04.967Z,43.28
2018-11-23T10:50:34.968Z,44.97
2018-11-23T10:53:03.256Z,43.03
2018-11-23T10:55:32.972Z,42.23
2018-11-23T10:58:01.249Z,45.28
2018-11-23T11:00:34.919Z,40.67
2018-11-23T11:03:08.380Z,43.70
2018-11-23T11:05:42.120Z,43.02
2018-11-23T11:08:10.487Z,45.20
2018-11-23T11:10:38.772Z,43.65
2018-11-23T11:13:07.079Z,48.13
2018-11-23T11:15:35.327Z,47.65
2018-11-23T11:18:03.601Z,42.53
2018-11-23T11:20:31.864Z,44.48
2018-11-23T11:23:00.144Z,44.77
2018-11-23T11:25:28.435Z,41.50
2018-11-23T11:27:56.743Z,42.15
2018-11-23T11:30:25.036Z,44.40
2018-11-23T11:32:53.344Z,40.33
2018-11-23T11:35:21.632Z,43.17
2018-11-23T11:37:49.883Z,39.83
2018-11-23T11:40:19.335Z,45.87
2018-11-23T11:42:47.593Z,42.20
2018-11-23T11:45:19.280Z,44.58
2018-11-23T11:47:48.044Z,38.53
2018-11-23T11:50:16.428Z,44.27
2018-11-23T11:52:47.139Z,39.42
2018-11-23T11:55:16.775Z,37.80
2018-11-23T11:57:45.679Z,44.75
2018-11-23T12:00:17.606Z,37.88
2018-11-23T12:02:46.114Z,33.90
2018-11-23T12:05:14.688Z,37.75
2018-11-23T12:07:42.973Z,37.90
2018-11-23T12:10:13.912Z,35.90
2018-11-23T12:12:42.249Z,34.40
2018-11-23T12:15:11.599Z,37.50
2018-11-23T12:17:40.184Z,33.88
2018-11-23T12:20:11.259Z,36.15
2018-11-23T12:22:39.530Z,35.55
2018-11-23T12:25:07.832Z,32.67
2018-11-23T12:27:36.155Z,35.15
2018-11-23T12:30:05.837Z,31.52
2018-11-23T12:32:34.108Z,38.65
2018-11-23T12:35:02.376Z,32.60
2018-11-23T12:37:30.729Z,35.70
2018-11-23T12:39:59.000Z,33.92
2018-11-23T12:42:27.275Z,33.08
2018-11-23T12:44:55.547Z,33.98
2018-11-23T12:47:23.804Z,36.50
2018-11-23T12:49:52.039Z,31.50
2018-11-23T12:52:20.337Z,33.70
2018-11-23T12:54:48.625Z,33.65
2018-11-23T12:57:16.931Z,32.38
2018-11-23T12:59:45.207Z,33.53
2018-11-23T13:02:13.472Z,30.68
2018-11-23T13:04:41.741Z,33.23
2018-11-23T13:07:10.014Z,33.77
2018-11-23T13:09:38.326Z,30.55
2018-11-23T13:12:06.572Z,35.50
2018-11-23T13:14:34.888Z,40.20
2018-11-23T13:17:03.163Z,33.13
2018-11-23T13:19:31.688Z,47.23
2018-11-23T13:22:00.021Z,34.75
2018-11-23T13:24:28.343Z,33.92
2018-11-23T13:26:56.603Z,35.10
2018-11-23T13:29:24.887Z,37.00
2018-11-23T13:31:53.221Z,35.33
2018-11-23T13:34:21.517Z,36.68
2018-11-23T13:36:49.814Z,36.50
2018-11-23T13:39:18.147Z,35.48
2018-11-23T13:41:46.421Z,34.63
2018-11-23T13:44:14.663Z,31.68
2018-11-23T13:46:42.960Z,35.30
2018-11-23T13:49:11.209Z,37.20
2018-11-23T13:51:39.485Z,34.10
2018-11-23T13:54:07.720Z,35.35
2018-11-23T13:56:35.980Z,36.10
2018-11-23T13:59:04.576Z,35.05
2018-11-23T14:01:32.832Z,31.82
2018-11-23T14:04:01.080Z,32.40
2018-11-23T14:06:29.351Z,33.18
2018-11-23T14:08:57.617Z,37.28
2018-11-23T14:11:25.885Z,34.98
2018-11-23T14:13:54.152Z,36.33
2018-11-23T14:16:22.479Z,36.95
2018-11-23T14:18:50.740Z,36.33
2018-11-23T14:21:19.068Z,36.23
2018-11-23T14:23:47.321Z,34.33
2018-11-23T14:26:15.600Z,33.80
2018-11-23T14:28:43.859Z,32.35
2018-11-23T14:31:12.324Z,35.10
2018-11-23T14:33:40.600Z,34.65
2018-11-23T14:36:08.884Z,35.27
2018-11-23T14:38:37.192Z,31.85
2018-11-23T14:41:12.348Z,32.55
2018-11-23T14:43:40.615Z,29.95
2018-11-23T14:46:08.852Z,34.92
2018-11-23T14:48:37.147Z,31.45
2018-11-23T14:51:05.453Z,28.65
2018-11-23T14:53:33.739Z,31.30
2018-11-23T14:56:02.080Z,30.32
2018-11-23T14:58:30.369Z,33.10
2018-11-23T15:00:58.683Z,30.92
2018-11-23T15:03:26.966Z,31.42
2018-11-23T15:05:55.227Z,34.00
2018-11-23T15:08:23.509Z,31.23
2018-11-23T15:10:51.781Z,32.40
2018-11-23T15:13:20.202Z,35.92
2018-11-23T15:15:48.484Z,32.65
2018-11-23T15:18:16.788Z,33.63
2018-11-23T15:20:46.384Z,36.58
2018-11-23T15:24:28.936Z,32.60
2018-11-23T15:26:57.205Z,37.60
2018-11-23T15:29:25.508Z,38.80
2018-11-23T15:31:53.799Z,31.33
2018-11-23T15:34:22.104Z,35.50
2018-11-23T15:36:50.392Z,36.93
2018-11-23T15:39:18.679Z,33.55
2018-11-23T15:41:46.979Z,33.65
2018-11-23T15:44:15.262Z,37.60
2018-11-23T15:46:43.507Z,36.38
2018-11-23T15:49:11.783Z,36.13
2018-11-23T15:51:40.051Z,36.38
2018-11-23T15:54:08.367Z,37.98
2018-11-23T15:56:36.615Z,33.53
2018-11-23T15:59:05.048Z,34.85
2018-11-23T16:01:33.368Z,38.58
2018-11-23T16:04:01.643Z,38.50
2018-11-23T16:06:30.200Z,43.13
2018-11-23T16:08:58.502Z,39.33
2018-11-23T16:11:26.792Z,40.05
2018-11-23T16:13:55.024Z,39.03
2018-11-23T16:16:23.294Z,42.80
2018-11-23T16:18:52.024Z,41.30
2018-11-23T16:21:20.281Z,44.65
2018-11-23T16:23:48.600Z,39.73
2018-11-23T16:26:16.876Z,48.48
2018-11-23T16:28:45.158Z,44.27
2018-11-23T16:31:13.460Z,42.73
2018-11-23T16:33:41.775Z,42.13
2018-11-23T16:36:10.344Z,41.42
2018-11-23T16:38:38.614Z,42.13
2018-11-23T16:41:06.870Z,40.00
2018-11-23T16:43:35.183Z,42.37
2018-11-23T16:46:03.464Z,42.08
2018-11-23T16:48:31.774Z,43.00
2018-11-23T16:51:00.046Z,45.48
2018-11-23T16:53:28.320Z,44.60
2018-11-23T16:55:56.575Z,45.13
2018-11-23T16:58:24.832Z,44.58
2018-11-23T17:00:53.098Z,42.35
2018-11-23T17:03:22.319Z,41.65
2018-11-23T17:05:51.977Z,41.45
2018-11-23T17:08:20.643Z,40.12
2018-11-23T17:10:48.908Z,44.15
2018-11-23T17:13:17.271Z,44.60
2018-11-23T17:15:45.514Z,47.00
2018-11-23T17:18:13.799Z,44.58
2018-11-23T17:20:42.157Z,49.25
2018-11-23T17:23:11.337Z,49.98
2018-11-23T17:25:39.621Z,47.23
2018-11-23T17:28:09.099Z,47.50
2018-11-23T17:30:37.808Z,50.75
2018-11-23T17:33:06.137Z,47.57
2018-11-23T17:35:34.412Z,47.00
2018-11-23T17:38:02.684Z,46.00
2018-11-23T17:40:32.543Z,55.23
2018-11-23T17:43:00.823Z,48.80
2018-11-23T17:45:30.954Z,39.38
2018-11-23T17:47:59.421Z,43.68
2018-11-23T17:50:28.844Z,45.28
2018-11-23T17:52:57.303Z,46.53
2018-11-23T17:55:25.601Z,44.90
2018-11-23T17:57:54.860Z,48.65
2018-11-23T18:00:24.480Z,47.97
2018-11-23T18:02:53.387Z,48.95
2018-11-23T18:05:22.540Z,52.40
2018-11-23T18:07:51.067Z,47.10
2018-11-23T18:10:21.745Z,49.18
2018-11-23T18:12:50.695Z,48.10
2018-11-23T18:15:21.324Z,47.27
2018-11-23T18:17:50.408Z,48.08
2018-11-23T18:20:19.805Z,48.17
2018-11-23T18:22:48.912Z,48.63
2018-11-23T18:25:19.691Z,52.20
2018-11-23T18:27:48.456Z,47.88
2018-11-23T18:30:16.742Z,114.40
2018-11-23T18:32:44.993Z,50.17
2018-11-23T18:35:13.970Z,54.40
2018-11-23T18:37:42.314Z,56.30
2018-11-23T18:40:11.715Z,52.40
2018-11-23T18:42:39.971Z,50.58
2018-11-23T18:45:11.348Z,52.00
2018-11-23T18:47:39.832Z,51.73
2018-11-23T18:50:09.726Z,49.33
2018-11-23T18:52:37.991Z,49.98
2018-11-23T18:55:06.780Z,52.35
2018-11-23T18:57:35.029Z,48.30
2018-11-23T19:00:03.347Z,49.88
2018-11-23T19:02:31.607Z,48.70
2018-11-23T19:04:59.904Z,51.98
2018-11-23T19:07:28.186Z,49.15
2018-11-23T19:09:56.492Z,47.47
2018-11-23T19:12:24.750Z,53.50
2018-11-23T19:14:53.026Z,52.05
2018-11-23T19:17:21.316Z,54.03
2018-11-23T19:19:49.593Z,51.58
2018-11-23T19:22:17.879Z,49.00
2018-11-23T19:24:46.137Z,52.50
2018-11-23T19:27:14.413Z,58.33
2018-11-23T19:29:42.704Z,46.85
2018-11-23T19:32:10.922Z,46.00
2018-11-23T19:34:39.184Z,42.53
2018-11-23T19:37:07.460Z,51.05
2018-11-23T19:39:35.736Z,49.10
2018-11-23T19:42:04.012Z,52.23
2018-11-23T19:44:32.297Z,63.03
2018-11-23T19:47:00.580Z,48.87
2018-11-23T19:49:28.837Z,49.27
2018-11-23T19:51:57.127Z,55.90
2018-11-23T19:54:25.385Z,49.50
2018-11-23T19:56:53.664Z,54.63
2018-11-23T19:59:21.912Z,46.28
2018-11-23T20:01:50.172Z,45.63
2018-11-23T20:04:18.436Z,45.65
2018-11-23T20:06:46.719Z,47.98
2018-11-23T20:09:14.997Z,47.45
2018-11-23T20:11:43.264Z,47.73
2018-11-23T20:14:11.552Z,43.85
2018-11-23T20:16:39.845Z,46.40
2018-11-23T20:19:08.081Z,44.08
2018-11-23T20:21:36.364Z,49.48
2018-11-23T20:24:04.898Z,52.78
2018-11-23T20:26:33.148Z,60.40
2018-11-23T20:29:01.436Z,55.73
2018-11-23T20:31:29.691Z,50.85
2018-11-23T20:33:57.995Z,51.02
2018-11-23T20:36:26.257Z,45.50
2018-11-23T20:38:54.525Z,46.77
2018-11-23T20:41:22.792Z,50.43
2018-11-23T20:43:51.471Z,48.95
2018-11-23T20:46:19.922Z,51.02
2018-11-23T20:48:48.041Z,56.63
2018-11-23T20:51:16.332Z,68.55
2018-11-23T20:53:44.623Z,64.33
2018-11-23T20:56:12.941Z,51.68
2018-11-23T20:58:41.239Z,44.10
2018-11-23T21:01:09.602Z,52.00
2018-11-23T21:03:37.904Z,63.08
2018-11-23T21:06:06.456Z,70.72
2018-11-23T21:08:34.744Z,56.70
2018-11-23T21:11:03.068Z,63.50
2018-11-23T21:13:31.371Z,70.28
2018-11-23T21:15:59.635Z,58.55
2018-11-23T21:18:27.901Z,56.35
2018-11-23T21:20:56.224Z,56.48
2018-11-23T21:23:24.533Z,54.70
2018-11-23T21:25:52.844Z,48.60
2018-11-23T21:28:21.170Z,52.30
2018-11-23T21:30:49.434Z,50.60
2018-11-23T21:33:18.187Z,53.60
2018-11-23T21:35:46.484Z,48.85
2018-11-23T21:38:14.915Z,47.80
2018-11-23T21:40:44.483Z,49.65
2018-11-23T21:43:11.479Z,47.58
2018-11-23T21:45:39.758Z,50.05
2018-11-23T21:48:08.024Z,49.50
2018-11-23T21:50:36.301Z,50.63
2018-11-23T21:53:04.603Z,47.70
2018-11-23T21:55:32.893Z,48.78
2018-11-23T21:58:01.172Z,53.87
2018-11-23T22:00:29.477Z,54.63
2018-11-23T22:02:57.768Z,53.75
2018-11-23T22:05:26.048Z,45.35
2018-11-23T22:07:54.355Z,48.48
2018-11-23T22:10:22.655Z,46.28
2018-11-23T22:12:51.032Z,47.10
2018-11-23T22:15:22.333Z,50.28
2018-11-23T22:17:51.514Z,56.15
2018-11-23T22:20:20.775Z,51.88
2018-11-23T22:22:49.041Z,50.70
2018-11-23T22:25:18.420Z,51.92
2018-11-23T22:27:46.723Z,47.50
2018-11-23T22:30:17.975Z,52.90
2018-11-23T22:32:46.280Z,49.57
2018-11-23T22:35:14.620Z,51.58
2018-11-23T22:37:42.888Z,48.95
2018-11-23T22:40:13.269Z,48.78
2018-11-23T22:42:42.544Z,55.47
2018-11-23T22:45:12.057Z,51.63
2018-11-23T22:47:40.340Z,52.73
2018-11-23T22:50:11.900Z,54.60
2018-11-23T22:52:40.191Z,54.60
2018-11-23T22:55:10.592Z,54.85
2018-11-23T22:57:39.061Z,51.53
2018-11-23T23:00:11.328Z,54.80
2018-11-23T23:02:39.636Z,50.75
2018-11-23T23:05:08.191Z,56.02
2018-11-23T23:07:36.451Z,53.90
2018-11-23T23:10:05.056Z,57.70
2018-11-23T23:12:33.351Z,51.55
2018-11-23T23:15:01.652Z,48.95
2018-11-23T23:17:32.842Z,51.83
2018-11-23T23:20:01.077Z,54.45
2018-11-23T23:22:29.350Z,52.10
2018-11-23T23:24:57.635Z,47.75
2018-11-23T23:27:25.895Z,49.03
2018-11-23T23:29:54.196Z,48.05
2018-11-23T23:32:22.444Z,51.23
2018-11-23T23:34:50.728Z,46.13
2018-11-23T23:37:19.007Z,47.35
2018-11-23T23:39:47.267Z,50.85
2018-11-23T23:42:15.527Z,52.50
2018-11-23T23:44:43.789Z,47.62
2018-11-23T23:47:12.091Z,52.08
2018-11-23T23:49:40.352Z,50.75
2018-11-23T23:52:08.633Z,52.00
2018-11-23T23:54:36.884Z,49.77
2018-11-23T23:57:05.189Z,50.60
2018-11-23T23:59:33.459Z,47.40
